sensor_id;sensor_type;location;lat;lon;timestamp;temperature;humidity
18426;DHT22;9340;48.756;9.226;2022-09-12T00:00:32;12.10;99.90
18426;DHT22;9340;48.756;9.226;2022-09-12T00:03:00;12.10;99.90
18426;DHT22;9340;48.756;9.226;2022-09-12T00:05:27;12.00;99.90
18426;DHT22;9340;48.756;9.226;2022-09-12T00:07:55;12.00;99.90
18426;DHT22;9340;48.756;9.226;2022-09-12T00:10:22;12.10;99.90
18426;DHT22;9340;48.756;9.226;2022-09-12T00:12:48;12.10;99.90
18426;DHT22;9340;48.756;9.226;2022-09-12T00:15:15;12.10;99.90
18426;DHT22;9340;48.756;9.226;2022-09-12T00:17:42;12.10;99.90
18426;DHT22;9340;48.756;9.226;2022-09-12T00:20:10;12.10;99.90
18426;DHT22;9340;48.756;9.226;2022-09-12T00:22:37;12.00;99.90
18426;DHT22;9340;48.756;9.226;2022-09-12T00:25:04;12.00;99.90
18426;DHT22;9340;48.756;9.226;2022-09-12T00:27:31;11.90;99.90
18426;DHT22;9340;48.756;9.226;2022-09-12T00:29:58;11.90;99.90
18426;DHT22;9340;48.756;9.226;2022-09-12T00:32:24;11.90;99.90
18426;DHT22;9340;48.756;9.226;2022-09-12T00:34:51;11.90;99.90
18426;DHT22;9340;48.756;9.226;2022-09-12T00:37:19;11.80;99.90
18426;DHT22;9340;48.756;9.226;2022-09-12T00:39:46;11.80;99.90
18426;DHT22;9340;48.756;9.226;2022-09-12T00:42:12;11.90;99.90
18426;DHT22;9340;48.756;9.226;2022-09-12T00:44:46;11.90;99.90
18426;DHT22;9340;48.756;9.226;2022-09-12T00:47:16;11.80;99.90
18426;DHT22;9340;48.756;9.226;2022-09-12T00:49:47;11.70;99.90
18426;DHT22;9340;48.756;9.226;2022-09-12T00:52:20;11.70;99.90
18426;DHT22;9340;48.756;9.226;2022-09-12T00:54:51;11.70;99.90
18426;DHT22;9340;48.756;9.226;2022-09-12T00:57:22;11.60;99.90
18426;DHT22;9340;48.756;9.226;2022-09-12T00:59:52;11.60;99.90
18426;DHT22;9340;48.756;9.226;2022-09-12T01:02:20;11.60;99.90
18426;DHT22;9340;48.756;9.226;2022-09-12T01:04:47;11.60;99.90
18426;DHT22;9340;48.756;9.226;2022-09-12T01:07:14;11.60;99.90
18426;DHT22;9340;48.756;9.226;2022-09-12T01:09:43;11.60;99.90
18426;DHT22;9340;48.756;9.226;2022-09-12T01:12:11;11.60;99.90
18426;DHT22;9340;48.756;9.226;2022-09-12T01:14:39;11.70;99.90
18426;DHT22;9340;48.756;9.226;2022-09-12T01:17:05;11.70;99.90
18426;DHT22;9340;48.756;9.226;2022-09-12T01:20:13;11.60;99.90
18426;DHT22;9340;48.756;9.226;2022-09-12T01:23:09;11.60;99.90
18426;DHT22;9340;48.756;9.226;2022-09-12T01:25:54;11.50;99.90
18426;DHT22;9340;48.756;9.226;2022-09-12T01:31:30;11.60;99.90
18426;DHT22;9340;48.756;9.226;2022-09-12T01:34:08;11.60;99.90
18426;DHT22;9340;48.756;9.226;2022-09-12T01:36:42;11.50;99.90
18426;DHT22;9340;48.756;9.226;2022-09-12T01:39:24;11.40;99.90
18426;DHT22;9340;48.756;9.226;2022-09-12T01:41:59;11.40;99.90
18426;DHT22;9340;48.756;9.226;2022-09-12T01:44:35;11.40;99.90
18426;DHT22;9340;48.756;9.226;2022-09-12T01:47:05;11.40;99.90
18426;DHT22;9340;48.756;9.226;2022-09-12T01:49:37;11.40;99.90
18426;DHT22;9340;48.756;9.226;2022-09-12T01:52:11;11.40;99.90
18426;DHT22;9340;48.756;9.226;2022-09-12T01:54:43;11.40;99.90
18426;DHT22;9340;48.756;9.226;2022-09-12T01:57:15;11.40;99.90
18426;DHT22;9340;48.756;9.226;2022-09-12T01:59:46;11.30;99.90
18426;DHT22;9340;48.756;9.226;2022-09-12T02:02:18;11.20;99.90
18426;DHT22;9340;48.756;9.226;2022-09-12T02:04:51;11.20;99.90
18426;DHT22;9340;48.756;9.226;2022-09-12T02:07:24;11.20;99.90
18426;DHT22;9340;48.756;9.226;2022-09-12T02:09:56;11.20;99.90
18426;DHT22;9340;48.756;9.226;2022-09-12T02:12:26;11.10;99.90
18426;DHT22;9340;48.756;9.226;2022-09-12T02:14:57;11.10;99.90
18426;DHT22;9340;48.756;9.226;2022-09-12T02:17:28;11.10;99.90
18426;DHT22;9340;48.756;9.226;2022-09-12T02:19:58;11.10;99.90
18426;DHT22;9340;48.756;9.226;2022-09-12T02:22:26;11.10;99.90
18426;DHT22;9340;48.756;9.226;2022-09-12T02:24:57;11.10;99.90
18426;DHT22;9340;48.756;9.226;2022-09-12T02:27:27;11.10;99.90
18426;DHT22;9340;48.756;9.226;2022-09-12T02:29:55;11.00;99.90
18426;DHT22;9340;48.756;9.226;2022-09-12T02:32:30;11.00;99.90
18426;DHT22;9340;48.756;9.226;2022-09-12T02:35:02;11.00;99.90
18426;DHT22;9340;48.756;9.226;2022-09-12T02:37:39;11.00;99.90
18426;DHT22;9340;48.756;9.226;2022-09-12T02:40:09;11.00;99.90
18426;DHT22;9340;48.756;9.226;2022-09-12T02:42:36;11.00;99.90
18426;DHT22;9340;48.756;9.226;2022-09-12T02:45:03;11.00;99.90
18426;DHT22;9340;48.756;9.226;2022-09-12T02:47:35;11.00;99.90
18426;DHT22;9340;48.756;9.226;2022-09-12T02:50:03;11.00;99.90
18426;DHT22;9340;48.756;9.226;2022-09-12T02:52:33;10.90;99.90
18426;DHT22;9340;48.756;9.226;2022-09-12T02:55:02;11.00;99.90
18426;DHT22;9340;48.756;9.226;2022-09-12T02:57:30;11.00;99.90
18426;DHT22;9340;48.756;9.226;2022-09-12T02:59:59;11.00;99.90
18426;DHT22;9340;48.756;9.226;2022-09-12T03:02:34;11.00;99.90
18426;DHT22;9340;48.756;9.226;2022-09-12T03:05:19;10.90;99.90
18426;DHT22;9340;48.756;9.226;2022-09-12T03:11:16;10.70;99.90
18426;DHT22;9340;48.756;9.226;2022-09-12T03:13:53;10.70;99.90
18426;DHT22;9340;48.756;9.226;2022-09-12T03:16:26;10.70;99.90
18426;DHT22;9340;48.756;9.226;2022-09-12T03:19:00;10.70;99.90
18426;DHT22;9340;48.756;9.226;2022-09-12T03:21:32;10.80;99.90
18426;DHT22;9340;48.756;9.226;2022-09-12T03:24:08;10.80;99.90
18426;DHT22;9340;48.756;9.226;2022-09-12T03:26:41;10.70;99.90
18426;DHT22;9340;48.756;9.226;2022-09-12T03:29:10;10.70;99.90
18426;DHT22;9340;48.756;9.226;2022-09-12T03:31:47;10.70;99.90
18426;DHT22;9340;48.756;9.226;2022-09-12T03:34:16;10.70;99.90
18426;DHT22;9340;48.756;9.226;2022-09-12T03:36:42;10.70;99.90
18426;DHT22;9340;48.756;9.226;2022-09-12T03:39:09;10.60;99.90
18426;DHT22;9340;48.756;9.226;2022-09-12T03:41:36;10.70;99.90
18426;DHT22;9340;48.756;9.226;2022-09-12T03:44:02;10.70;99.90
18426;DHT22;9340;48.756;9.226;2022-09-12T03:46:29;10.50;99.90
18426;DHT22;9340;48.756;9.226;2022-09-12T03:48:56;10.50;99.90
18426;DHT22;9340;48.756;9.226;2022-09-12T03:51:24;10.50;99.90
18426;DHT22;9340;48.756;9.226;2022-09-12T03:53:50;10.50;99.90
18426;DHT22;9340;48.756;9.226;2022-09-12T03:56:17;10.50;99.90
18426;DHT22;9340;48.756;9.226;2022-09-12T03:58:44;10.50;99.90
18426;DHT22;9340;48.756;9.226;2022-09-12T04:01:12;10.50;99.90
18426;DHT22;9340;48.756;9.226;2022-09-12T04:03:39;10.50;99.90
18426;DHT22;9340;48.756;9.226;2022-09-12T04:06:07;10.40;99.90
18426;DHT22;9340;48.756;9.226;2022-09-12T04:08:36;10.40;99.90
18426;DHT22;9340;48.756;9.226;2022-09-12T04:11:04;10.40;99.90
18426;DHT22;9340;48.756;9.226;2022-09-12T04:13:32;10.40;99.90
18426;DHT22;9340;48.756;9.226;2022-09-12T04:15:59;10.40;99.90
18426;DHT22;9340;48.756;9.226;2022-09-12T04:18:26;10.30;99.90
18426;DHT22;9340;48.756;9.226;2022-09-12T04:20:52;10.20;99.90
18426;DHT22;9340;48.756;9.226;2022-09-12T04:23:19;10.30;99.90
18426;DHT22;9340;48.756;9.226;2022-09-12T04:25:53;10.30;99.90
18426;DHT22;9340;48.756;9.226;2022-09-12T04:28:20;10.30;99.90
18426;DHT22;9340;48.756;9.226;2022-09-12T04:30:47;10.30;99.90
18426;DHT22;9340;48.756;9.226;2022-09-12T04:33:14;10.20;99.90
18426;DHT22;9340;48.756;9.226;2022-09-12T04:35:41;10.10;99.90
18426;DHT22;9340;48.756;9.226;2022-09-12T04:38:07;10.10;99.90
18426;DHT22;9340;48.756;9.226;2022-09-12T04:40:34;10.00;99.90
18426;DHT22;9340;48.756;9.226;2022-09-12T04:43:03;10.00;99.90
18426;DHT22;9340;48.756;9.226;2022-09-12T04:45:31;10.10;99.90
18426;DHT22;9340;48.756;9.226;2022-09-12T04:47:58;10.10;99.90
18426;DHT22;9340;48.756;9.226;2022-09-12T04:50:25;10.10;99.90
18426;DHT22;9340;48.756;9.226;2022-09-12T04:52:52;10.10;99.90
18426;DHT22;9340;48.756;9.226;2022-09-12T04:55:20;10.10;99.90
18426;DHT22;9340;48.756;9.226;2022-09-12T04:57:47;10.10;99.90
18426;DHT22;9340;48.756;9.226;2022-09-12T05:00:15;10.00;99.90
18426;DHT22;9340;48.756;9.226;2022-09-12T05:02:42;10.00;99.90
18426;DHT22;9340;48.756;9.226;2022-09-12T05:05:09;10.10;99.90
18426;DHT22;9340;48.756;9.226;2022-09-12T05:07:35;10.10;99.90
18426;DHT22;9340;48.756;9.226;2022-09-12T05:10:03;10.10;99.90
18426;DHT22;9340;48.756;9.226;2022-09-12T05:12:29;10.10;99.90
18426;DHT22;9340;48.756;9.226;2022-09-12T05:14:56;10.10;99.90
18426;DHT22;9340;48.756;9.226;2022-09-12T05:17:24;10.20;99.90
18426;DHT22;9340;48.756;9.226;2022-09-12T05:19:51;10.20;99.90
18426;DHT22;9340;48.756;9.226;2022-09-12T05:22:17;10.10;99.90
18426;DHT22;9340;48.756;9.226;2022-09-12T05:24:44;10.10;99.90
18426;DHT22;9340;48.756;9.226;2022-09-12T05:27:11;10.20;99.90
18426;DHT22;9340;48.756;9.226;2022-09-12T05:29:37;10.30;99.90
18426;DHT22;9340;48.756;9.226;2022-09-12T05:32:04;10.30;99.90
18426;DHT22;9340;48.756;9.226;2022-09-12T05:34:32;10.30;99.90
18426;DHT22;9340;48.756;9.226;2022-09-12T05:36:58;10.30;99.90
18426;DHT22;9340;48.756;9.226;2022-09-12T05:39:25;10.40;99.90
18426;DHT22;9340;48.756;9.226;2022-09-12T05:41:52;10.40;99.90
18426;DHT22;9340;48.756;9.226;2022-09-12T05:44:18;10.40;99.90
18426;DHT22;9340;48.756;9.226;2022-09-12T05:46:45;10.40;99.90
18426;DHT22;9340;48.756;9.226;2022-09-12T05:49:15;10.60;99.90
18426;DHT22;9340;48.756;9.226;2022-09-12T05:51:44;10.60;99.90
18426;DHT22;9340;48.756;9.226;2022-09-12T05:54:12;10.60;99.90
18426;DHT22;9340;48.756;9.226;2022-09-12T05:56:41;10.60;99.90
18426;DHT22;9340;48.756;9.226;2022-09-12T05:59:11;10.70;99.90
18426;DHT22;9340;48.756;9.226;2022-09-12T06:01:38;10.80;99.90
18426;DHT22;9340;48.756;9.226;2022-09-12T06:04:06;10.90;99.90
18426;DHT22;9340;48.756;9.226;2022-09-12T06:06:35;11.00;99.90
18426;DHT22;9340;48.756;9.226;2022-09-12T06:09:04;11.10;99.90
18426;DHT22;9340;48.756;9.226;2022-09-12T06:11:32;11.10;99.90
18426;DHT22;9340;48.756;9.226;2022-09-12T06:14:00;11.20;99.90
18426;DHT22;9340;48.756;9.226;2022-09-12T06:16:28;11.20;99.90
18426;DHT22;9340;48.756;9.226;2022-09-12T06:18:57;11.30;99.90
18426;DHT22;9340;48.756;9.226;2022-09-12T06:21:25;11.40;99.90
18426;DHT22;9340;48.756;9.226;2022-09-12T06:23:53;11.40;99.90
18426;DHT22;9340;48.756;9.226;2022-09-12T06:26:22;11.50;99.90
18426;DHT22;9340;48.756;9.226;2022-09-12T06:28:50;11.70;99.90
18426;DHT22;9340;48.756;9.226;2022-09-12T06:31:19;11.70;99.90
18426;DHT22;9340;48.756;9.226;2022-09-12T06:33:48;11.80;99.90
18426;DHT22;9340;48.756;9.226;2022-09-12T06:36:16;11.90;99.90
18426;DHT22;9340;48.756;9.226;2022-09-12T06:38:43;12.00;99.90
18426;DHT22;9340;48.756;9.226;2022-09-12T06:41:11;12.00;99.90
18426;DHT22;9340;48.756;9.226;2022-09-12T06:43:40;12.10;99.90
18426;DHT22;9340;48.756;9.226;2022-09-12T06:46:07;12.10;99.90
18426;DHT22;9340;48.756;9.226;2022-09-12T06:48:35;12.20;99.90
18426;DHT22;9340;48.756;9.226;2022-09-12T06:51:03;12.30;99.90
18426;DHT22;9340;48.756;9.226;2022-09-12T06:53:31;12.30;99.90
18426;DHT22;9340;48.756;9.226;2022-09-12T06:56:00;12.40;99.90
18426;DHT22;9340;48.756;9.226;2022-09-12T06:58:28;12.50;99.90
18426;DHT22;9340;48.756;9.226;2022-09-12T07:01:02;12.60;99.90
18426;DHT22;9340;48.756;9.226;2022-09-12T07:03:29;12.70;99.90
18426;DHT22;9340;48.756;9.226;2022-09-12T07:05:56;12.80;99.90
18426;DHT22;9340;48.756;9.226;2022-09-12T07:08:24;12.90;99.90
18426;DHT22;9340;48.756;9.226;2022-09-12T07:10:51;13.10;99.90
18426;DHT22;9340;48.756;9.226;2022-09-12T07:13:18;13.20;99.90
18426;DHT22;9340;48.756;9.226;2022-09-12T07:15:45;13.20;99.90
18426;DHT22;9340;48.756;9.226;2022-09-12T07:18:13;13.30;99.90
18426;DHT22;9340;48.756;9.226;2022-09-12T07:20:39;13.40;99.90
18426;DHT22;9340;48.756;9.226;2022-09-12T07:23:07;13.50;99.90
18426;DHT22;9340;48.756;9.226;2022-09-12T07:25:33;13.60;99.90
18426;DHT22;9340;48.756;9.226;2022-09-12T07:28:00;13.70;99.90
18426;DHT22;9340;48.756;9.226;2022-09-12T07:30:27;13.80;99.90
18426;DHT22;9340;48.756;9.226;2022-09-12T07:32:53;13.90;99.90
18426;DHT22;9340;48.756;9.226;2022-09-12T07:35:21;14.00;99.90
18426;DHT22;9340;48.756;9.226;2022-09-12T07:37:48;14.10;99.90
18426;DHT22;9340;48.756;9.226;2022-09-12T07:40:15;14.20;99.90
18426;DHT22;9340;48.756;9.226;2022-09-12T07:42:41;14.30;99.90
18426;DHT22;9340;48.756;9.226;2022-09-12T07:45:09;14.40;99.90
18426;DHT22;9340;48.756;9.226;2022-09-12T07:47:35;14.50;99.90
18426;DHT22;9340;48.756;9.226;2022-09-12T07:50:02;14.60;99.90
18426;DHT22;9340;48.756;9.226;2022-09-12T07:52:30;14.60;99.90
18426;DHT22;9340;48.756;9.226;2022-09-12T07:54:57;14.70;99.90
18426;DHT22;9340;48.756;9.226;2022-09-12T07:57:24;14.90;99.90
18426;DHT22;9340;48.756;9.226;2022-09-12T07:59:50;15.00;99.90
18426;DHT22;9340;48.756;9.226;2022-09-12T08:02:17;15.20;99.90
18426;DHT22;9340;48.756;9.226;2022-09-12T08:04:46;15.40;99.90
18426;DHT22;9340;48.756;9.226;2022-09-12T08:07:12;15.60;99.90
18426;DHT22;9340;48.756;9.226;2022-09-12T08:09:40;15.70;99.90
18426;DHT22;9340;48.756;9.226;2022-09-12T08:12:07;15.80;99.90
18426;DHT22;9340;48.756;9.226;2022-09-12T08:14:34;16.00;99.90
18426;DHT22;9340;48.756;9.226;2022-09-12T08:17:01;16.00;99.90
18426;DHT22;9340;48.756;9.226;2022-09-12T08:19:28;16.00;99.90
18426;DHT22;9340;48.756;9.226;2022-09-12T08:21:56;16.10;99.90
18426;DHT22;9340;48.756;9.226;2022-09-12T08:24:22;16.30;99.90
18426;DHT22;9340;48.756;9.226;2022-09-12T08:26:50;16.30;99.90
18426;DHT22;9340;48.756;9.226;2022-09-12T08:29:17;16.40;99.90
18426;DHT22;9340;48.756;9.226;2022-09-12T08:31:44;16.60;99.90
18426;DHT22;9340;48.756;9.226;2022-09-12T08:34:11;16.60;99.90
18426;DHT22;9340;48.756;9.226;2022-09-12T08:36:37;16.70;99.90
18426;DHT22;9340;48.756;9.226;2022-09-12T08:39:06;16.90;99.90
18426;DHT22;9340;48.756;9.226;2022-09-12T08:41:35;17.10;99.90
18426;DHT22;9340;48.756;9.226;2022-09-12T08:44:34;17.00;99.90
18426;DHT22;9340;48.756;9.226;2022-09-12T08:47:20;17.10;99.90
18426;DHT22;9340;48.756;9.226;2022-09-12T08:49:56;17.20;99.90
18426;DHT22;9340;48.756;9.226;2022-09-12T08:52:28;17.30;99.90
18426;DHT22;9340;48.756;9.226;2022-09-12T08:54:56;17.50;99.90
18426;DHT22;9340;48.756;9.226;2022-09-12T08:57:23;17.60;99.90
18426;DHT22;9340;48.756;9.226;2022-09-12T08:59:51;17.80;99.90
18426;DHT22;9340;48.756;9.226;2022-09-12T09:05:24;17.80;99.90
18426;DHT22;9340;48.756;9.226;2022-09-12T09:08:06;18.00;99.90
18426;DHT22;9340;48.756;9.226;2022-09-12T09:10:45;18.10;99.90
18426;DHT22;9340;48.756;9.226;2022-09-12T09:13:23;18.20;99.90
18426;DHT22;9340;48.756;9.226;2022-09-12T09:16:11;18.30;99.90
18426;DHT22;9340;48.756;9.226;2022-09-12T09:18:42;18.30;99.90
18426;DHT22;9340;48.756;9.226;2022-09-12T09:21:15;18.50;99.90
18426;DHT22;9340;48.756;9.226;2022-09-12T09:23:47;18.60;99.90
18426;DHT22;9340;48.756;9.226;2022-09-12T09:26:20;18.70;99.90
18426;DHT22;9340;48.756;9.226;2022-09-12T09:28:54;18.80;99.90
18426;DHT22;9340;48.756;9.226;2022-09-12T09:31:25;18.90;99.90
18426;DHT22;9340;48.756;9.226;2022-09-12T09:33:54;19.00;99.90
18426;DHT22;9340;48.756;9.226;2022-09-12T09:36:22;19.00;99.90
18426;DHT22;9340;48.756;9.226;2022-09-12T09:38:58;19.20;99.90
18426;DHT22;9340;48.756;9.226;2022-09-12T09:41:34;19.30;99.90
18426;DHT22;9340;48.756;9.226;2022-09-12T09:44:02;19.40;99.90
18426;DHT22;9340;48.756;9.226;2022-09-12T09:46:31;19.50;99.90
18426;DHT22;9340;48.756;9.226;2022-09-12T09:48:59;19.50;99.90
18426;DHT22;9340;48.756;9.226;2022-09-12T09:51:32;19.60;99.90
18426;DHT22;9340;48.756;9.226;2022-09-12T09:54:01;19.70;99.90
18426;DHT22;9340;48.756;9.226;2022-09-12T09:56:32;19.80;99.90
18426;DHT22;9340;48.756;9.226;2022-09-12T09:59:08;19.90;99.90
18426;DHT22;9340;48.756;9.226;2022-09-12T10:01:36;20.00;99.90
18426;DHT22;9340;48.756;9.226;2022-09-12T10:04:17;20.10;99.90
18426;DHT22;9340;48.756;9.226;2022-09-12T10:06:44;20.30;99.90
18426;DHT22;9340;48.756;9.226;2022-09-12T10:09:20;20.60;99.90
18426;DHT22;9340;48.756;9.226;2022-09-12T10:11:47;20.70;99.90
18426;DHT22;9340;48.756;9.226;2022-09-12T10:14:35;20.70;99.90
18426;DHT22;9340;48.756;9.226;2022-09-12T10:17:22;20.80;99.90
18426;DHT22;9340;48.756;9.226;2022-09-12T10:19:52;20.80;99.90
18426;DHT22;9340;48.756;9.226;2022-09-12T10:22:21;21.10;99.90
18426;DHT22;9340;48.756;9.226;2022-09-12T10:24:50;21.00;99.90
18426;DHT22;9340;48.756;9.226;2022-09-12T10:27:19;21.00;99.90
18426;DHT22;9340;48.756;9.226;2022-09-12T10:29:49;21.10;99.90
18426;DHT22;9340;48.756;9.226;2022-09-12T10:32:26;21.10;99.90
18426;DHT22;9340;48.756;9.226;2022-09-12T10:34:57;21.10;99.90
18426;DHT22;9340;48.756;9.226;2022-09-12T10:37:29;21.30;99.90
18426;DHT22;9340;48.756;9.226;2022-09-12T10:39:57;21.40;99.90
18426;DHT22;9340;48.756;9.226;2022-09-12T10:42:45;21.40;99.90
18426;DHT22;9340;48.756;9.226;2022-09-12T10:45:20;21.70;99.90
18426;DHT22;9340;48.756;9.226;2022-09-12T10:47:49;21.70;99.90
18426;DHT22;9340;48.756;9.226;2022-09-12T10:50:22;21.80;99.90
18426;DHT22;9340;48.756;9.226;2022-09-12T10:52:50;21.80;99.90
18426;DHT22;9340;48.756;9.226;2022-09-12T10:55:19;21.70;99.90
18426;DHT22;9340;48.756;9.226;2022-09-12T10:58:16;21.70;99.90
18426;DHT22;9340;48.756;9.226;2022-09-12T11:00:46;21.80;99.90
18426;DHT22;9340;48.756;9.226;2022-09-12T11:03:22;22.10;99.90
18426;DHT22;9340;48.756;9.226;2022-09-12T11:05:55;22.10;99.90
18426;DHT22;9340;48.756;9.226;2022-09-12T11:08:50;22.20;99.90
18426;DHT22;9340;48.756;9.226;2022-09-12T11:11:38;22.20;99.90
18426;DHT22;9340;48.756;9.226;2022-09-12T11:14:26;22.40;99.90
18426;DHT22;9340;48.756;9.226;2022-09-12T11:16:59;22.30;99.90
18426;DHT22;9340;48.756;9.226;2022-09-12T11:19:44;22.30;99.90
18426;DHT22;9340;48.756;9.226;2022-09-12T11:22:40;22.30;99.90
18426;DHT22;9340;48.756;9.226;2022-09-12T11:25:17;22.30;99.90
18426;DHT22;9340;48.756;9.226;2022-09-12T11:30:38;22.40;99.90
18426;DHT22;9340;48.756;9.226;2022-09-12T11:33:25;22.40;99.90
18426;DHT22;9340;48.756;9.226;2022-09-12T11:35:59;22.60;99.90
18426;DHT22;9340;48.756;9.226;2022-09-12T11:38:51;22.50;99.90
18426;DHT22;9340;48.756;9.226;2022-09-12T11:41:26;22.50;99.90
18426;DHT22;9340;48.756;9.226;2022-09-12T11:43:59;22.60;99.90
18426;DHT22;9340;48.756;9.226;2022-09-12T11:46:32;22.80;99.90
18426;DHT22;9340;48.756;9.226;2022-09-12T11:49:05;22.90;99.90
18426;DHT22;9340;48.756;9.226;2022-09-12T11:51:42;23.00;99.90
18426;DHT22;9340;48.756;9.226;2022-09-12T11:54:14;23.00;99.90
18426;DHT22;9340;48.756;9.226;2022-09-12T11:56:46;23.00;99.90
18426;DHT22;9340;48.756;9.226;2022-09-12T11:59:23;23.10;99.90
18426;DHT22;9340;48.756;9.226;2022-09-12T12:01:55;23.10;99.90
18426;DHT22;9340;48.756;9.226;2022-09-12T12:04:29;22.90;99.90
18426;DHT22;9340;48.756;9.226;2022-09-12T12:07:03;23.00;99.90
18426;DHT22;9340;48.756;9.226;2022-09-12T12:09:30;23.00;99.90
18426;DHT22;9340;48.756;9.226;2022-09-12T12:12:00;23.20;99.90
18426;DHT22;9340;48.756;9.226;2022-09-12T12:14:39;23.30;99.90
18426;DHT22;9340;48.756;9.226;2022-09-12T12:17:13;23.30;99.90
18426;DHT22;9340;48.756;9.226;2022-09-12T12:19:41;23.30;99.90
18426;DHT22;9340;48.756;9.226;2022-09-12T12:22:16;23.30;99.90
18426;DHT22;9340;48.756;9.226;2022-09-12T12:25:06;23.40;99.90
18426;DHT22;9340;48.756;9.226;2022-09-12T12:27:49;23.30;99.90
18426;DHT22;9340;48.756;9.226;2022-09-12T12:33:53;23.40;99.90
18426;DHT22;9340;48.756;9.226;2022-09-12T12:36:36;23.40;99.90
18426;DHT22;9340;48.756;9.226;2022-09-12T12:48:56;23.20;99.90
18426;DHT22;9340;48.756;9.226;2022-09-12T12:57:17;23.10;99.90
18426;DHT22;9340;48.756;9.226;2022-09-12T12:59:47;23.20;99.90
18426;DHT22;9340;48.756;9.226;2022-09-12T13:02:19;23.30;99.90
18426;DHT22;9340;48.756;9.226;2022-09-12T13:04:47;23.40;99.90
18426;DHT22;9340;48.756;9.226;2022-09-12T13:07:29;23.50;99.90
18426;DHT22;9340;48.756;9.226;2022-09-12T13:09:57;23.40;99.90
18426;DHT22;9340;48.756;9.226;2022-09-12T13:12:26;23.40;99.90
18426;DHT22;9340;48.756;9.226;2022-09-12T13:14:55;23.50;99.90
18426;DHT22;9340;48.756;9.226;2022-09-12T13:17:26;23.50;99.90
18426;DHT22;9340;48.756;9.226;2022-09-12T13:20:05;23.60;99.90
18426;DHT22;9340;48.756;9.226;2022-09-12T13:22:41;23.70;99.90
18426;DHT22;9340;48.756;9.226;2022-09-12T13:25:22;23.80;99.90
18426;DHT22;9340;48.756;9.226;2022-09-12T13:27:57;23.90;99.90
18426;DHT22;9340;48.756;9.226;2022-09-12T13:30:24;23.80;99.90
18426;DHT22;9340;48.756;9.226;2022-09-12T13:32:52;23.90;99.90
18426;DHT22;9340;48.756;9.226;2022-09-12T13:35:28;23.90;99.90
18426;DHT22;9340;48.756;9.226;2022-09-12T13:38:04;23.90;99.90
18426;DHT22;9340;48.756;9.226;2022-09-12T13:40:43;23.90;99.90
18426;DHT22;9340;48.756;9.226;2022-09-12T13:43:13;24.00;99.90
18426;DHT22;9340;48.756;9.226;2022-09-12T13:45:42;24.00;99.90
18426;DHT22;9340;48.756;9.226;2022-09-12T13:48:13;24.00;99.90
18426;DHT22;9340;48.756;9.226;2022-09-12T13:50:47;23.90;99.90
18426;DHT22;9340;48.756;9.226;2022-09-12T13:53:17;23.90;99.90
18426;DHT22;9340;48.756;9.226;2022-09-12T13:55:48;23.80;99.90
18426;DHT22;9340;48.756;9.226;2022-09-12T13:58:19;23.90;99.90
18426;DHT22;9340;48.756;9.226;2022-09-12T14:00:59;23.70;99.90
18426;DHT22;9340;48.756;9.226;2022-09-12T14:03:27;23.80;99.90
18426;DHT22;9340;48.756;9.226;2022-09-12T14:06:13;23.80;99.90
18426;DHT22;9340;48.756;9.226;2022-09-12T14:08:43;23.90;99.90
18426;DHT22;9340;48.756;9.226;2022-09-12T14:11:18;23.80;99.90
18426;DHT22;9340;48.756;9.226;2022-09-12T14:13:46;23.90;99.90
18426;DHT22;9340;48.756;9.226;2022-09-12T14:16:13;23.90;99.90
18426;DHT22;9340;48.756;9.226;2022-09-12T14:18:41;23.80;99.90
18426;DHT22;9340;48.756;9.226;2022-09-12T14:21:15;23.80;99.90
18426;DHT22;9340;48.756;9.226;2022-09-12T14:23:47;23.80;99.90
18426;DHT22;9340;48.756;9.226;2022-09-12T14:26:15;23.80;99.90
18426;DHT22;9340;48.756;9.226;2022-09-12T14:28:44;23.80;99.90
18426;DHT22;9340;48.756;9.226;2022-09-12T14:31:21;23.60;99.90
18426;DHT22;9340;48.756;9.226;2022-09-12T14:33:50;23.70;99.90
18426;DHT22;9340;48.756;9.226;2022-09-12T14:36:22;23.80;99.90
18426;DHT22;9340;48.756;9.226;2022-09-12T14:38:51;23.90;99.90
18426;DHT22;9340;48.756;9.226;2022-09-12T14:41:24;23.90;99.90
18426;DHT22;9340;48.756;9.226;2022-09-12T14:43:54;24.00;99.90
18426;DHT22;9340;48.756;9.226;2022-09-12T14:46:23;24.00;99.90
18426;DHT22;9340;48.756;9.226;2022-09-12T14:48:54;24.00;99.90
18426;DHT22;9340;48.756;9.226;2022-09-12T14:51:26;24.00;99.90
18426;DHT22;9340;48.756;9.226;2022-09-12T14:53:53;24.00;99.90
18426;DHT22;9340;48.756;9.226;2022-09-12T14:56:21;23.90;99.90
18426;DHT22;9340;48.756;9.226;2022-09-12T14:58:48;23.90;99.90
18426;DHT22;9340;48.756;9.226;2022-09-12T15:01:23;23.70;99.90
18426;DHT22;9340;48.756;9.226;2022-09-12T15:03:52;23.80;99.90
18426;DHT22;9340;48.756;9.226;2022-09-12T15:06:25;23.90;99.90
18426;DHT22;9340;48.756;9.226;2022-09-12T15:08:53;23.90;99.90
18426;DHT22;9340;48.756;9.226;2022-09-12T15:11:21;24.00;99.90
18426;DHT22;9340;48.756;9.226;2022-09-12T15:13:48;24.00;99.90
18426;DHT22;9340;48.756;9.226;2022-09-12T15:16:15;23.90;99.90
18426;DHT22;9340;48.756;9.226;2022-09-12T15:18:42;23.70;99.90
18426;DHT22;9340;48.756;9.226;2022-09-12T15:21:12;23.80;99.90
18426;DHT22;9340;48.756;9.226;2022-09-12T15:23:45;23.80;99.90
18426;DHT22;9340;48.756;9.226;2022-09-12T15:26:13;23.80;99.90
18426;DHT22;9340;48.756;9.226;2022-09-12T15:28:41;23.80;99.90
18426;DHT22;9340;48.756;9.226;2022-09-12T15:31:12;23.80;99.90
18426;DHT22;9340;48.756;9.226;2022-09-12T15:33:40;23.80;99.90
18426;DHT22;9340;48.756;9.226;2022-09-12T15:36:13;23.80;99.90
18426;DHT22;9340;48.756;9.226;2022-09-12T15:38:43;23.70;99.90
18426;DHT22;9340;48.756;9.226;2022-09-12T15:41:14;23.70;99.90
18426;DHT22;9340;48.756;9.226;2022-09-12T15:43:41;23.60;99.90
18426;DHT22;9340;48.756;9.226;2022-09-12T15:46:10;23.50;99.90
18426;DHT22;9340;48.756;9.226;2022-09-12T15:48:36;23.40;99.90
18426;DHT22;9340;48.756;9.226;2022-09-12T15:51:04;23.30;99.90
18426;DHT22;9340;48.756;9.226;2022-09-12T15:53:31;23.30;99.90
18426;DHT22;9340;48.756;9.226;2022-09-12T15:55:58;23.30;99.90
18426;DHT22;9340;48.756;9.226;2022-09-12T15:58:25;23.20;99.90
18426;DHT22;9340;48.756;9.226;2022-09-12T16:00:52;23.10;99.90
18426;DHT22;9340;48.756;9.226;2022-09-12T16:03:24;23.20;99.90
18426;DHT22;9340;48.756;9.226;2022-09-12T16:05:55;23.20;99.90
18426;DHT22;9340;48.756;9.226;2022-09-12T16:08:22;23.00;99.90
18426;DHT22;9340;48.756;9.226;2022-09-12T16:10:53;23.00;99.90
18426;DHT22;9340;48.756;9.226;2022-09-12T16:13:22;23.00;99.90
18426;DHT22;9340;48.756;9.226;2022-09-12T16:15:49;22.90;99.90
18426;DHT22;9340;48.756;9.226;2022-09-12T16:18:16;22.90;99.90
18426;DHT22;9340;48.756;9.226;2022-09-12T16:20:42;22.80;99.90
18426;DHT22;9340;48.756;9.226;2022-09-12T16:23:10;22.80;99.90
18426;DHT22;9340;48.756;9.226;2022-09-12T16:25:37;22.70;99.90
18426;DHT22;9340;48.756;9.226;2022-09-12T16:28:04;22.60;99.90
18426;DHT22;9340;48.756;9.226;2022-09-12T16:30:33;22.70;99.90
18426;DHT22;9340;48.756;9.226;2022-09-12T16:32:59;22.50;99.90
18426;DHT22;9340;48.756;9.226;2022-09-12T16:35:26;22.40;99.90
18426;DHT22;9340;48.756;9.226;2022-09-12T16:37:53;22.30;99.90